createdAt,value
2023-02-19T00:00:41.229Z,1009.88
2023-02-19T00:01:41.227Z,1009.92
2023-02-19T00:02:41.245Z,1009.90
2023-02-19T00:03:41.326Z,1009.89
2023-02-19T00:04:41.241Z,1009.87
2023-02-19T00:05:41.214Z,1009.87
2023-02-19T00:06:41.208Z,1009.84
2023-02-19T00:07:41.206Z,1009.88
2023-02-19T00:08:41.201Z,1009.92
2023-02-19T00:09:41.196Z,1009.92
2023-02-19T00:10:41.196Z,1009.94
2023-02-19T00:11:41.197Z,1009.97
2023-02-19T00:12:41.188Z,1009.97
2023-02-19T00:13:41.187Z,1009.95
2023-02-19T00:14:41.182Z,1009.94
2023-02-19T00:15:41.209Z,1009.90
2023-02-19T00:16:41.180Z,1009.91
2023-02-19T00:17:41.171Z,1009.94
2023-02-19T00:18:41.196Z,1009.93
2023-02-19T00:19:41.165Z,1009.91
2023-02-19T00:20:41.162Z,1009.92
2023-02-19T00:21:41.156Z,1009.93
2023-02-19T00:22:41.167Z,1009.93
2023-02-19T00:23:41.147Z,1009.92
2023-02-19T00:24:41.154Z,1009.95
2023-02-19T00:25:41.141Z,1009.93
2023-02-19T00:26:41.149Z,1009.95
2023-02-19T00:27:41.142Z,1009.92
2023-02-19T00:28:41.139Z,1009.94
2023-02-19T00:29:41.134Z,1009.86
2023-02-19T00:30:41.132Z,1009.84
2023-02-19T00:31:41.264Z,1009.84
2023-02-19T00:32:41.125Z,1009.84
2023-02-19T00:33:41.120Z,1009.85
2023-02-19T00:34:41.145Z,1009.82
2023-02-19T00:35:41.114Z,1009.82
2023-02-19T00:36:41.128Z,1009.77
2023-02-19T00:37:41.107Z,1009.75
2023-02-19T00:38:41.108Z,1009.74
2023-02-19T00:39:41.104Z,1009.76
2023-02-19T00:40:41.170Z,1009.72
2023-02-19T00:41:41.104Z,1009.71
2023-02-19T00:42:41.093Z,1009.68
2023-02-19T00:43:41.097Z,1009.62
2023-02-19T00:44:41.090Z,1009.62
2023-02-19T00:45:41.084Z,1009.64
2023-02-19T00:46:41.194Z,1009.62
2023-02-19T00:47:41.081Z,1009.61
2023-02-19T00:48:41.076Z,1009.65
2023-02-19T00:49:41.069Z,1009.65
2023-02-19T00:50:41.094Z,1009.67
2023-02-19T00:51:41.068Z,1009.69
2023-02-19T00:52:41.064Z,1009.67
2023-02-19T00:53:41.067Z,1009.65
2023-02-19T00:54:41.085Z,1009.69
2023-02-19T00:55:41.053Z,1009.71
2023-02-19T00:56:41.055Z,1009.69
2023-02-19T00:57:41.052Z,1009.72
2023-02-19T00:58:41.047Z,1009.71
2023-02-19T00:59:41.043Z,1009.73
2023-02-19T01:00:41.045Z,1009.73
2023-02-19T01:01:41.115Z,1009.71
2023-02-19T01:02:41.040Z,1009.74
2023-02-19T01:03:41.042Z,1009.70
2023-02-19T01:04:41.066Z,1009.77
2023-02-19T01:05:41.025Z,1009.71
2023-02-19T01:06:41.038Z,1009.65
2023-02-19T01:07:41.011Z,1009.65
2023-02-19T01:08:41.009Z,1009.62
2023-02-19T01:09:41.004Z,1009.62
2023-02-19T01:10:41.004Z,1009.62
2023-02-19T01:11:40.999Z,1009.59
2023-02-19T01:12:41.006Z,1009.59
2023-02-19T01:13:40.993Z,1009.56
2023-02-19T01:14:40.994Z,1009.55
2023-02-19T01:15:40.980Z,1009.55
2023-02-19T01:16:40.985Z,1009.57
2023-02-19T01:17:40.979Z,1009.53
2023-02-19T01:18:40.985Z,1009.52
2023-02-19T01:19:40.970Z,1009.52
2023-02-19T01:20:40.973Z,1009.50
2023-02-19T01:21:40.967Z,1009.48
2023-02-19T01:22:40.986Z,1009.47
2023-02-19T01:23:40.982Z,1009.44
2023-02-19T01:24:40.958Z,1009.45
2023-02-19T01:25:40.959Z,1009.41
2023-02-19T01:26:40.952Z,1009.42
2023-02-19T01:27:40.941Z,1009.41
2023-02-19T01:28:40.944Z,1009.37
2023-02-19T01:29:40.950Z,1009.36
2023-02-19T01:30:40.937Z,1009.29
2023-02-19T01:31:41.085Z,1009.27
2023-02-19T01:32:40.928Z,1009.21
2023-02-19T01:33:40.933Z,1009.18
2023-02-19T01:34:40.929Z,1009.20
2023-02-19T01:35:40.922Z,1009.16
2023-02-19T01:36:40.922Z,1009.19
2023-02-19T01:37:40.911Z,1009.19
2023-02-19T01:38:40.937Z,1009.16
2023-02-19T01:39:40.909Z,1009.15
2023-02-19T01:40:40.906Z,1009.06
2023-02-19T01:41:40.914Z,1009.04
2023-02-19T01:42:40.903Z,1008.98
2023-02-19T01:43:40.893Z,1008.93
2023-02-19T01:44:40.897Z,1008.91
2023-02-19T01:45:40.886Z,1008.80
2023-02-19T01:46:40.940Z,1008.82
2023-02-19T01:47:40.876Z,1008.94
2023-02-19T01:48:40.880Z,1008.96
2023-02-19T01:49:40.876Z,1009.00
2023-02-19T01:50:40.877Z,1009.01
2023-02-19T01:51:40.866Z,1009.06
2023-02-19T01:52:40.875Z,1009.07
2023-02-19T01:53:40.868Z,1009.07
2023-02-19T01:54:40.894Z,1009.08
2023-02-19T01:55:40.855Z,1009.03
2023-02-19T01:56:40.853Z,1009.03
2023-02-19T01:57:40.848Z,1009.01
2023-02-19T01:58:40.853Z,1009.01
2023-02-19T01:59:40.847Z,1009.00
2023-02-19T02:00:40.878Z,1008.96
2023-02-19T02:01:41.007Z,1008.92
2023-02-19T02:02:40.837Z,1008.95
2023-02-19T02:03:40.840Z,1008.93
2023-02-19T02:04:40.833Z,1008.94
2023-02-19T02:05:40.826Z,1008.91
2023-02-19T02:06:40.825Z,1008.88
2023-02-19T02:07:40.824Z,1008.91
2023-02-19T02:08:40.819Z,1008.86
2023-02-19T02:09:40.816Z,1008.85
2023-02-19T02:10:40.835Z,1008.83
2023-02-19T02:11:40.808Z,1008.81
2023-02-19T02:12:40.811Z,1008.76
2023-02-19T02:13:40.808Z,1008.72
2023-02-19T02:14:40.800Z,1008.67
2023-02-19T02:15:40.799Z,1008.64
2023-02-19T02:16:40.794Z,1008.63
2023-02-19T02:17:40.785Z,1008.63
2023-02-19T02:18:40.792Z,1008.58
2023-02-19T02:19:40.781Z,1008.60
2023-02-19T02:20:40.784Z,1008.59
2023-02-19T02:21:40.783Z,1008.71
2023-02-19T02:22:40.775Z,1008.71
2023-02-19T02:23:40.767Z,1008.70
2023-02-19T02:24:40.766Z,1008.71
2023-02-19T02:25:40.761Z,1008.70
2023-02-19T02:26:40.782Z,1008.70
2023-02-19T02:27:40.756Z,1008.67
2023-02-19T02:28:40.757Z,1008.63
2023-02-19T02:29:40.754Z,1008.58
2023-02-19T02:30:40.751Z,1008.63
2023-02-19T02:31:40.851Z,1008.67
2023-02-19T02:32:40.745Z,1008.67
2023-02-19T02:33:40.734Z,1008.72
2023-02-19T02:34:40.738Z,1008.75
2023-02-19T02:35:40.730Z,1008.76
2023-02-19T02:36:40.733Z,1008.77
2023-02-19T02:37:40.725Z,1008.78
2023-02-19T02:38:40.726Z,1008.79
2023-02-19T02:39:40.715Z,1008.78
2023-02-19T02:40:40.718Z,1008.76
2023-02-19T02:41:40.708Z,1008.76
2023-02-19T02:42:40.713Z,1008.75
2023-02-19T02:43:40.702Z,1008.74
2023-02-19T02:44:40.708Z,1008.76
2023-02-19T02:45:40.739Z,1008.72
2023-02-19T02:46:40.699Z,1008.76
2023-02-19T02:47:40.690Z,1008.70
2023-02-19T02:48:40.694Z,1008.73
2023-02-19T02:49:40.685Z,1008.71
2023-02-19T02:50:40.695Z,1008.67
2023-02-19T02:51:40.676Z,1008.71
2023-02-19T02:52:40.689Z,1008.68
2023-02-19T02:53:40.673Z,1008.68
2023-02-19T02:54:40.672Z,1008.69
2023-02-19T02:55:40.667Z,1008.71
2023-02-19T02:56:40.665Z,1008.74
2023-02-19T02:57:40.658Z,1008.71
2023-02-19T02:58:40.661Z,1008.68
2023-02-19T02:59:40.654Z,1008.68
2023-02-19T03:00:40.658Z,1008.69
2023-02-19T03:01:40.642Z,1008.73
2023-02-19T03:02:40.646Z,1008.76
2023-02-19T03:03:40.641Z,1008.76
2023-02-19T03:04:40.636Z,1008.75
2023-02-19T03:05:40.634Z,1008.75
2023-02-19T03:06:40.630Z,1008.77
2023-02-19T03:07:40.621Z,1008.78
2023-02-19T03:08:40.623Z,1008.76
2023-02-19T03:09:40.713Z,1008.73
2023-02-19T03:10:40.614Z,1008.76
2023-02-19T03:11:40.609Z,1008.80
2023-02-19T03:12:40.605Z,1008.75
2023-02-19T03:13:40.602Z,1008.78
2023-02-19T03:14:40.600Z,1008.78
2023-02-19T03:15:40.596Z,1008.79
2023-02-19T03:16:42.737Z,1008.80
2023-02-19T03:17:40.608Z,1008.81
2023-02-19T03:18:40.606Z,1008.82
2023-02-19T03:19:40.580Z,1008.81
2023-02-19T03:20:40.588Z,1008.87
2023-02-19T03:21:40.576Z,1008.85
2023-02-19T03:22:40.577Z,1008.81
2023-02-19T03:23:40.569Z,1008.87
2023-02-19T03:24:40.573Z,1008.91
2023-02-19T03:25:40.575Z,1008.94
2023-02-19T03:26:40.572Z,1008.91
2023-02-19T03:27:40.557Z,1008.99
2023-02-19T03:28:40.551Z,1008.98
2023-02-19T03:29:40.560Z,1008.96
2023-02-19T03:30:40.555Z,1009.03
2023-02-19T03:31:40.642Z,1009.03
2023-02-19T03:32:40.538Z,1009.03
2023-02-19T03:33:40.530Z,1009.02
2023-02-19T03:34:40.531Z,1009.00
2023-02-19T03:35:40.526Z,1009.03
2023-02-19T03:36:40.523Z,1009.02
2023-02-19T03:37:40.517Z,1009.00
2023-02-19T03:38:40.519Z,1008.99
2023-02-19T03:39:40.514Z,1009.00
2023-02-19T03:40:40.514Z,1009.03
2023-02-19T03:41:40.508Z,1009.03
2023-02-19T03:42:40.505Z,1009.03
2023-02-19T03:43:40.500Z,1009.04
2023-02-19T03:44:40.496Z,1009.05
2023-02-19T03:45:40.508Z,1009.05
2023-02-19T03:46:40.492Z,1009.04
2023-02-19T03:47:40.483Z,1009.02
2023-02-19T03:48:40.486Z,1009.02
2023-02-19T03:49:40.484Z,1009.06
2023-02-19T03:50:40.474Z,1009.08
2023-02-19T03:51:40.472Z,1009.02
2023-02-19T03:52:40.469Z,1009.01
2023-02-19T03:53:40.469Z,1009.04
2023-02-19T03:54:40.469Z,1009.10
2023-02-19T03:55:40.455Z,1009.11
2023-02-19T03:56:40.464Z,1009.17
2023-02-19T03:57:40.460Z,1009.13
2023-02-19T03:58:40.452Z,1009.19
2023-02-19T03:59:40.447Z,1009.14
2023-02-19T04:00:40.446Z,1009.18
2023-02-19T04:01:40.438Z,1009.10
2023-02-19T04:02:40.437Z,1009.12
2023-02-19T04:03:40.431Z,1009.04
2023-02-19T04:04:40.455Z,1009.08
2023-02-19T04:05:40.424Z,1009.04
2023-02-19T04:06:40.423Z,1009.07
2023-02-19T04:07:40.419Z,1009.09
2023-02-19T04:08:40.417Z,1009.10
2023-02-19T04:09:40.409Z,1009.09
2023-02-19T04:10:40.410Z,1009.15
2023-02-19T04:11:40.414Z,1009.12
2023-02-19T04:12:40.402Z,1009.18
2023-02-19T04:13:40.397Z,1009.14
2023-02-19T04:14:40.393Z,1009.19
2023-02-19T04:15:40.391Z,1009.20
2023-02-19T04:16:40.485Z,1009.18
2023-02-19T04:17:40.384Z,1009.21
2023-02-19T04:18:40.376Z,1009.18
2023-02-19T04:19:40.383Z,1009.26
2023-02-19T04:20:40.379Z,1009.24
2023-02-19T04:21:40.368Z,1009.26
2023-02-19T04:22:40.364Z,1009.27
2023-02-19T04:23:40.370Z,1009.27
2023-02-19T04:24:40.358Z,1009.27
2023-02-19T04:25:40.354Z,1009.31
2023-02-19T04:26:40.349Z,1009.30
2023-02-19T04:27:40.351Z,1009.29
2023-02-19T04:28:40.339Z,1009.31
2023-02-19T04:29:40.338Z,1009.31
2023-02-19T04:30:40.450Z,1009.35
2023-02-19T04:31:40.339Z,1009.32
2023-02-19T04:32:40.327Z,1009.34
2023-02-19T04:33:40.321Z,1009.36
2023-02-19T04:34:40.318Z,1009.39
2023-02-19T04:35:40.316Z,1009.40
2023-02-19T04:36:40.305Z,1009.46
2023-02-19T04:37:40.301Z,1009.41
2023-02-19T04:38:40.294Z,1009.40
2023-02-19T04:39:40.295Z,1009.45
2023-02-19T04:40:40.300Z,1009.44
2023-02-19T04:41:40.286Z,1009.42
2023-02-19T04:42:40.284Z,1009.45
2023-02-19T04:43:40.278Z,1009.44
2023-02-19T04:44:40.274Z,1009.42
2023-02-19T04:45:40.267Z,1009.44
2023-02-19T04:46:42.716Z,1009.44
2023-02-19T04:47:40.261Z,1009.46
2023-02-19T04:48:40.259Z,1009.48
2023-02-19T04:49:40.260Z,1009.48
2023-02-19T04:50:40.253Z,1009.46
2023-02-19T04:51:40.248Z,1009.49
2023-02-19T04:52:40.262Z,1009.52
2023-02-19T04:53:40.241Z,1009.52
2023-02-19T04:54:40.236Z,1009.50
2023-02-19T04:55:40.252Z,1009.51
2023-02-19T04:56:40.229Z,1009.52
2023-02-19T04:57:40.223Z,1009.50
2023-02-19T04:58:40.218Z,1009.48
2023-02-19T04:59:40.218Z,1009.51
2023-02-19T05:00:40.208Z,1009.51
2023-02-19T05:01:40.248Z,1009.56
2023-02-19T05:02:40.204Z,1009.55
2023-02-19T05:03:40.193Z,1009.59
2023-02-19T05:04:40.258Z,1009.63
2023-02-19T05:05:40.188Z,1009.63
2023-02-19T05:06:40.182Z,1009.64
2023-02-19T05:07:40.185Z,1009.66
2023-02-19T05:08:40.189Z,1009.69
2023-02-19T05:09:40.183Z,1009.69
2023-02-19T05:10:40.171Z,1009.68
2023-02-19T05:11:40.169Z,1009.64
2023-02-19T05:12:40.164Z,1009.68
2023-02-19T05:13:40.203Z,1009.66
2023-02-19T05:14:40.155Z,1009.65
2023-02-19T05:15:40.174Z,1009.67
2023-02-19T05:16:40.145Z,1009.69
2023-02-19T05:17:40.148Z,1009.68
2023-02-19T05:18:40.138Z,1009.69
2023-02-19T05:19:40.138Z,1009.65
2023-02-19T05:20:40.134Z,1009.63
2023-02-19T05:21:40.128Z,1009.65
2023-02-19T05:22:40.122Z,1009.65
2023-02-19T05:23:40.120Z,1009.58
2023-02-19T05:24:40.117Z,1009.62
2023-02-19T05:25:40.111Z,1009.63
2023-02-19T05:26:40.109Z,1009.63
2023-02-19T05:27:40.109Z,1009.63
2023-02-19T05:28:40.107Z,1009.59
2023-02-19T05:29:40.163Z,1009.58
2023-02-19T05:30:40.089Z,1009.59
2023-02-19T05:31:40.247Z,1009.59
2023-02-19T05:32:40.103Z,1009.59
2023-02-19T05:33:40.081Z,1009.58
2023-02-19T05:34:40.078Z,1009.58
2023-02-19T05:35:40.094Z,1009.56
2023-02-19T05:36:40.065Z,1009.55
2023-02-19T05:37:40.065Z,1009.60
2023-02-19T05:38:40.057Z,1009.62
2023-02-19T05:39:40.054Z,1009.63
2023-02-19T05:40:40.052Z,1009.57
2023-02-19T05:41:40.050Z,1009.66
2023-02-19T05:42:40.040Z,1009.63
2023-02-19T05:43:40.047Z,1009.61
2023-02-19T05:44:40.035Z,1009.61
2023-02-19T05:45:40.036Z,1009.62
2023-02-19T05:46:40.076Z,1009.61
2023-02-19T05:47:40.024Z,1009.65
2023-02-19T05:48:40.034Z,1009.65
2023-02-19T05:49:40.021Z,1009.65
2023-02-19T05:50:40.119Z,1009.69
2023-02-19T05:51:40.008Z,1009.69
2023-02-19T05:52:40.006Z,1009.72
2023-02-19T05:53:40.018Z,1009.75
2023-02-19T05:54:39.999Z,1009.67
2023-02-19T05:55:40.000Z,1009.71
2023-02-19T05:56:39.990Z,1009.68
2023-02-19T05:57:42.514Z,1009.72
2023-02-19T05:58:39.979Z,1009.70
2023-02-19T05:59:39.981Z,1009.70
2023-02-19T06:00:39.970Z,1009.69
2023-02-19T06:01:39.970Z,1009.78
2023-02-19T06:02:40.030Z,1009.77
2023-02-19T06:03:39.999Z,1009.80
2023-02-19T06:04:39.957Z,1009.85
2023-02-19T06:05:39.955Z,1009.83
2023-02-19T06:06:39.943Z,1009.82
2023-02-19T06:07:39.960Z,1009.79
2023-02-19T06:08:39.953Z,1009.82
2023-02-19T06:09:39.940Z,1009.75
2023-02-19T06:10:39.931Z,1009.70
2023-02-19T06:11:39.934Z,1009.75
2023-02-19T06:12:39.922Z,1009.77
2023-02-19T06:13:39.923Z,1009.79
2023-02-19T06:14:39.913Z,1009.78
2023-02-19T06:15:39.915Z,1009.78
2023-02-19T06:16:39.907Z,1009.73
2023-02-19T06:17:39.905Z,1009.75
2023-02-19T06:18:39.897Z,1009.70
2023-02-19T06:19:39.897Z,1009.73
2023-02-19T06:20:39.890Z,1009.71
2023-02-19T06:21:39.893Z,1009.76
2023-02-19T06:22:39.887Z,1009.75
2023-02-19T06:23:39.882Z,1009.75
2023-02-19T06:24:39.871Z,1009.76
2023-02-19T06:25:39.964Z,1009.82
2023-02-19T06:26:39.866Z,1009.84
2023-02-19T06:27:39.881Z,1009.85
2023-02-19T06:28:39.861Z,1009.79
2023-02-19T06:29:39.858Z,1009.83
2023-02-19T06:30:39.853Z,1009.82
2023-02-19T06:31:40.050Z,1009.84
2023-02-19T06:32:39.847Z,1009.84
2023-02-19T06:33:39.843Z,1009.82
2023-02-19T06:34:39.835Z,1009.81
2023-02-19T06:35:39.835Z,1009.82
2023-02-19T06:36:39.831Z,1009.84
2023-02-19T06:37:39.827Z,1009.89
2023-02-19T06:38:39.825Z,1009.90
2023-02-19T06:39:39.833Z,1009.91
2023-02-19T06:40:39.830Z,1009.99
2023-02-19T06:41:39.815Z,1009.99
2023-02-19T06:42:39.811Z,1009.98
2023-02-19T06:43:39.812Z,1010.03
2023-02-19T06:44:39.799Z,1010.05
2023-02-19T06:45:39.800Z,1010.06
2023-02-19T06:46:39.861Z,1010.08
2023-02-19T06:47:39.788Z,1010.11
2023-02-19T06:48:39.789Z,1010.14
2023-02-19T06:49:39.781Z,1010.20
2023-02-19T06:50:39.776Z,1010.23
2023-02-19T06:51:39.773Z,1010.28
2023-02-19T06:52:39.768Z,1010.33
2023-02-19T06:53:39.781Z,1010.32
2023-02-19T06:54:39.764Z,1010.30
2023-02-19T06:55:39.758Z,1010.38
2023-02-19T06:56:39.774Z,1010.39
2023-02-19T06:57:39.748Z,1010.43
2023-02-19T06:58:39.745Z,1010.47
2023-02-19T06:59:39.738Z,1010.47
2023-02-19T07:00:39.760Z,1010.49
2023-02-19T07:01:39.737Z,1010.56
2023-02-19T07:02:39.729Z,1010.57
2023-02-19T07:03:39.729Z,1010.59
2023-02-19T07:04:39.722Z,1010.60
2023-02-19T07:05:39.719Z,1010.55
2023-02-19T07:06:39.713Z,1010.53
2023-02-19T07:07:39.731Z,1010.50
2023-02-19T07:08:39.699Z,1010.51
2023-02-19T07:09:39.696Z,1010.58
2023-02-19T07:10:39.689Z,1010.54
2023-02-19T07:11:39.692Z,1010.55
2023-02-19T07:12:39.684Z,1010.56
2023-02-19T07:13:39.687Z,1010.51
2023-02-19T07:14:39.677Z,1010.55
2023-02-19T07:15:39.676Z,1010.59
2023-02-19T07:16:39.733Z,1010.59
2023-02-19T07:17:39.663Z,1010.64
2023-02-19T07:18:39.664Z,1010.65
2023-02-19T07:19:39.657Z,1010.67
2023-02-19T07:20:39.654Z,1010.69
2023-02-19T07:21:39.647Z,1010.71
2023-02-19T07:22:39.640Z,1010.74
2023-02-19T07:23:39.665Z,1010.80
2023-02-19T07:24:39.636Z,1010.84
2023-02-19T07:25:39.715Z,1010.87
2023-02-19T07:26:39.625Z,1010.91
2023-02-19T07:27:39.625Z,1010.89
2023-02-19T07:28:39.625Z,1010.88
2023-02-19T07:29:39.615Z,1010.91
2023-02-19T07:30:39.604Z,1010.92
2023-02-19T07:31:39.723Z,1010.95
2023-02-19T07:32:39.604Z,1010.96
2023-02-19T07:33:39.604Z,1010.98
2023-02-19T07:34:39.592Z,1011.05
2023-02-19T07:35:39.595Z,1011.14
2023-02-19T07:36:39.589Z,1011.12
2023-02-19T07:37:39.588Z,1011.09
2023-02-19T07:38:39.580Z,1011.08
2023-02-19T07:39:39.584Z,1011.10
2023-02-19T07:40:39.571Z,1011.04
2023-02-19T07:41:39.575Z,1011.07
2023-02-19T07:42:39.571Z,1011.16
2023-02-19T07:43:39.565Z,1011.18
2023-02-19T07:44:39.557Z,1011.18
2023-02-19T07:45:39.600Z,1011.25
2023-02-19T07:46:39.557Z,1011.26
2023-02-19T07:47:39.553Z,1011.22
2023-02-19T07:48:39.564Z,1011.23
2023-02-19T07:49:39.542Z,1011.37
2023-02-19T07:50:39.543Z,1011.36
2023-02-19T07:51:39.537Z,1011.32
2023-02-19T07:52:39.541Z,1011.34
2023-02-19T07:53:39.534Z,1011.39
2023-02-19T07:54:39.528Z,1011.39
2023-02-19T07:55:39.521Z,1011.35
2023-02-19T07:56:39.524Z,1011.42
2023-02-19T07:57:39.526Z,1011.45
2023-02-19T07:58:39.504Z,1011.45
2023-02-19T07:59:39.512Z,1011.47
2023-02-19T08:00:39.511Z,1011.47
2023-02-19T08:01:39.499Z,1011.47
2023-02-19T08:02:39.509Z,1011.52
2023-02-19T08:03:39.569Z,1011.57
2023-02-19T08:04:39.492Z,1011.60
2023-02-19T08:05:39.484Z,1011.63
2023-02-19T08:06:39.493Z,1011.69
2023-02-19T08:07:39.484Z,1011.67
2023-02-19T08:08:39.489Z,1011.70
2023-02-19T08:09:39.492Z,1011.75
2023-02-19T08:10:39.462Z,1011.75
2023-02-19T08:11:39.468Z,1011.78
2023-02-19T08:12:39.464Z,1011.82
2023-02-19T08:13:39.458Z,1011.95
2023-02-19T08:14:39.469Z,1011.94
2023-02-19T08:15:39.445Z,1011.97
2023-02-19T08:16:43.336Z,1011.94
2023-02-19T08:17:39.450Z,1011.97
2023-02-19T08:18:39.431Z,1012.04
2023-02-19T08:19:39.439Z,1012.10
2023-02-19T08:20:39.442Z,1012.05
2023-02-19T08:21:39.431Z,1012.11
2023-02-19T08:22:39.422Z,1012.03
2023-02-19T08:23:39.421Z,1012.13
2023-02-19T08:24:39.423Z,1012.12
2023-02-19T08:25:39.416Z,1012.11
2023-02-19T08:26:39.409Z,1012.17
2023-02-19T08:27:39.410Z,1012.18
2023-02-19T08:28:39.409Z,1012.20
2023-02-19T08:29:39.397Z,1012.30
2023-02-19T08:30:39.498Z,1012.41
2023-02-19T08:31:39.581Z,1012.38
2023-02-19T08:32:39.418Z,1012.35
2023-02-19T08:33:39.385Z,1012.48
2023-02-19T08:34:39.390Z,1012.55
2023-02-19T08:35:39.382Z,1012.47
2023-02-19T08:36:39.381Z,1012.47
2023-02-19T08:37:39.377Z,1012.44
2023-02-19T08:38:39.378Z,1012.58
2023-02-19T08:39:39.375Z,1012.60
2023-02-19T08:40:39.384Z,1012.49
2023-02-19T08:41:39.380Z,1012.51
2023-02-19T08:42:39.362Z,1012.54
2023-02-19T08:43:39.361Z,1012.65
2023-02-19T08:44:39.367Z,1012.60
2023-02-19T08:45:39.363Z,1012.82
2023-02-19T08:46:39.353Z,1012.84
2023-02-19T08:47:39.352Z,1012.77
2023-02-19T08:48:39.354Z,1012.78
2023-02-19T08:49:39.337Z,1012.80
2023-02-19T08:50:39.338Z,1012.66
2023-02-19T08:51:39.332Z,1012.92
2023-02-19T08:52:39.340Z,1012.99
2023-02-19T08:53:39.344Z,1012.86
2023-02-19T08:54:39.325Z,1013.03
2023-02-19T08:55:39.330Z,1013.13
2023-02-19T08:56:39.328Z,1013.29
2023-02-19T08:57:39.331Z,1012.87
2023-02-19T08:58:39.323Z,1012.93
2023-02-19T08:59:39.317Z,1013.49
2023-02-19T09:00:39.314Z,1012.96
2023-02-19T09:01:39.397Z,1013.53
2023-02-19T09:02:39.309Z,1013.44
2023-02-19T09:03:39.304Z,1013.47
2023-02-19T09:04:39.303Z,1013.41
2023-02-19T09:05:39.301Z,1013.11
2023-02-19T09:06:40.143Z,1012.93
2023-02-19T09:07:39.299Z,1013.04
2023-02-19T09:08:39.300Z,1013.05
2023-02-19T09:09:39.296Z,1012.94
2023-02-19T09:10:39.289Z,1013.06
2023-02-19T09:11:39.293Z,1013.05
2023-02-19T09:12:39.289Z,1013.16
2023-02-19T09:13:39.286Z,1013.11
2023-02-19T09:14:39.288Z,1013.22
2023-02-19T09:15:39.400Z,1013.18
2023-02-19T09:16:39.305Z,1013.26
2023-02-19T09:17:39.276Z,1013.13
2023-02-19T09:18:39.293Z,1013.18
2023-02-19T09:19:39.281Z,1013.09
2023-02-19T09:20:39.279Z,1013.12
2023-02-19T09:21:39.284Z,1013.06
2023-02-19T09:22:39.281Z,1013.18
2023-02-19T09:23:39.285Z,1013.06
2023-02-19T09:24:39.272Z,1013.18
2023-02-19T09:25:39.283Z,1013.22
2023-02-19T09:26:39.282Z,1013.38
2023-02-19T09:27:39.265Z,1013.39
2023-02-19T09:28:39.272Z,1013.31
2023-02-19T09:29:39.270Z,1013.35
2023-02-19T09:30:39.279Z,1013.27
2023-02-19T09:31:39.441Z,1013.42
2023-02-19T09:32:39.262Z,1013.47
2023-02-19T09:33:39.254Z,1013.25
2023-02-19T09:34:39.269Z,1013.18
2023-02-19T09:35:39.257Z,1013.31
2023-02-19T09:36:39.253Z,1013.31
2023-02-19T09:37:39.257Z,1013.17
2023-02-19T09:38:39.250Z,1013.18
2023-02-19T09:39:39.263Z,1013.27
2023-02-19T09:40:39.251Z,1013.45
2023-02-19T09:41:39.247Z,1013.46
2023-02-19T09:42:39.242Z,1013.35
2023-02-19T09:43:39.247Z,1013.35
2023-02-19T09:44:39.245Z,1013.27
2023-02-19T09:45:39.240Z,1013.29
2023-02-19T09:46:39.237Z,1013.38
2023-02-19T09:47:39.292Z,1013.28
2023-02-19T09:48:39.243Z,1013.40
2023-02-19T09:49:39.237Z,1013.29
2023-02-19T09:50:39.236Z,1013.38
2023-02-19T09:51:39.239Z,1013.33
2023-02-19T09:52:39.238Z,1013.32
2023-02-19T09:53:39.221Z,1013.37
2023-02-19T09:54:39.242Z,1013.46
2023-02-19T09:55:39.218Z,1013.52
2023-02-19T09:56:39.218Z,1013.67
2023-02-19T09:57:39.212Z,1013.50
2023-02-19T09:58:39.214Z,1013.53
2023-02-19T09:59:39.210Z,1013.58
2023-02-19T10:00:39.210Z,1013.67
2023-02-19T10:01:39.269Z,1013.70
2023-02-19T10:02:39.208Z,1013.53
2023-02-19T10:03:39.219Z,1013.53
2023-02-19T10:04:39.203Z,1013.64
2023-02-19T10:05:39.198Z,1013.70
2023-02-19T10:06:39.204Z,1013.74
2023-02-19T10:07:39.201Z,1013.58
2023-02-19T10:08:39.208Z,1013.60
2023-02-19T10:09:39.187Z,1013.66
2023-02-19T10:10:39.193Z,1013.76
2023-02-19T10:11:39.183Z,1013.89
2023-02-19T10:12:39.189Z,1013.88
2023-02-19T10:13:39.180Z,1013.81
2023-02-19T10:14:39.189Z,1013.81
2023-02-19T10:15:39.213Z,1013.89
2023-02-19T10:16:39.187Z,1013.83
2023-02-19T10:17:39.174Z,1013.79
2023-02-19T10:18:39.174Z,1013.72
2023-02-19T10:19:39.173Z,1013.76
2023-02-19T10:20:39.185Z,1013.76
2023-02-19T10:21:39.169Z,1013.78
2023-02-19T10:22:39.178Z,1013.90
2023-02-19T10:23:39.169Z,1013.85
2023-02-19T10:24:39.170Z,1014.06
2023-02-19T10:25:39.159Z,1014.00
2023-02-19T10:26:39.163Z,1013.97
2023-02-19T10:27:39.162Z,1013.97
2023-02-19T10:28:39.170Z,1014.10
2023-02-19T10:29:39.161Z,1014.09
2023-02-19T10:30:39.160Z,1014.21
2023-02-19T10:31:39.228Z,1014.09
2023-02-19T10:32:39.156Z,1014.12
2023-02-19T10:33:39.146Z,1014.14
2023-02-19T10:34:39.151Z,1014.24
2023-02-19T10:35:39.154Z,1014.14
2023-02-19T10:36:39.180Z,1014.21
2023-02-19T10:37:39.147Z,1014.34
2023-02-19T10:38:39.148Z,1014.26
2023-02-19T10:39:39.138Z,1014.20
2023-02-19T10:40:39.150Z,1014.14
2023-02-19T10:41:39.135Z,1014.16
2023-02-19T10:42:39.145Z,1014.23
2023-02-19T10:43:39.135Z,1014.29
2023-02-19T10:44:39.132Z,1014.21
2023-02-19T10:45:39.128Z,1014.25
2023-02-19T10:46:39.161Z,1014.23
2023-02-19T10:47:39.129Z,1014.27
2023-02-19T10:48:39.130Z,1014.25
2023-02-19T10:49:39.140Z,1014.36
2023-02-19T10:50:39.135Z,1014.35
2023-02-19T10:51:39.127Z,1014.42
2023-02-19T10:52:39.130Z,1014.43
2023-02-19T10:53:39.120Z,1014.45
2023-02-19T10:54:39.123Z,1014.46
2023-02-19T10:55:39.118Z,1014.41
2023-02-19T10:56:39.119Z,1014.46
2023-02-19T10:57:39.117Z,1014.52
2023-02-19T10:58:39.117Z,1014.60
2023-02-19T10:59:39.113Z,1014.58
2023-02-19T11:00:39.121Z,1014.60
2023-02-19T11:01:39.114Z,1014.54
2023-02-19T11:02:39.115Z,1014.45
2023-02-19T11:03:39.126Z,1014.41
2023-02-19T11:04:39.187Z,1014.55
2023-02-19T11:05:39.102Z,1014.59
2023-02-19T11:06:39.108Z,1014.66
2023-02-19T11:07:39.106Z,1014.67
2023-02-19T11:08:39.101Z,1014.58
2023-02-19T11:09:39.103Z,1014.60
2023-02-19T11:10:39.099Z,1014.55
2023-02-19T11:11:39.104Z,1014.57
2023-02-19T11:12:39.099Z,1014.59
2023-02-19T11:13:39.097Z,1014.70
2023-02-19T11:14:39.099Z,1014.70
2023-02-19T11:15:39.111Z,1014.70
2023-02-19T11:16:39.109Z,1014.61
2023-02-19T11:17:39.090Z,1014.76
2023-02-19T11:18:39.100Z,1014.78
2023-02-19T11:19:39.118Z,1014.70
2023-02-19T11:20:39.093Z,1014.77
2023-02-19T11:21:39.086Z,1014.84
2023-02-19T11:22:39.084Z,1014.82
2023-02-19T11:23:39.088Z,1014.86
2023-02-19T11:24:39.088Z,1014.84
2023-02-19T11:25:39.084Z,1014.81
2023-02-19T11:26:39.091Z,1014.84
2023-02-19T11:27:39.079Z,1014.80
2023-02-19T11:28:39.137Z,1014.89
2023-02-19T11:29:39.077Z,1014.93
2023-02-19T11:30:39.172Z,1014.88
2023-02-19T11:31:39.143Z,1014.89
2023-02-19T11:32:39.080Z,1014.88
2023-02-19T11:33:39.072Z,1014.89
2023-02-19T11:34:39.078Z,1014.95
2023-02-19T11:35:39.072Z,1014.94
2023-02-19T11:36:39.073Z,1014.93
2023-02-19T11:37:39.072Z,1014.99
2023-02-19T11:38:39.073Z,1014.91
2023-02-19T11:39:39.068Z,1014.89
2023-02-19T11:40:39.076Z,1014.89
2023-02-19T11:41:39.064Z,1014.90
2023-02-19T11:42:39.078Z,1014.94
2023-02-19T11:43:39.070Z,1014.93
2023-02-19T11:44:39.067Z,1014.90
2023-02-19T11:45:39.064Z,1014.92
2023-02-19T11:46:39.191Z,1014.88
2023-02-19T11:47:39.067Z,1014.94
2023-02-19T11:48:39.061Z,1014.98
2023-02-19T11:49:39.057Z,1015.11
2023-02-19T11:50:39.055Z,1015.13
2023-02-19T11:51:39.055Z,1015.14
2023-02-19T11:52:39.064Z,1015.11
2023-02-19T11:53:39.051Z,1015.05
2023-02-19T11:54:39.053Z,1015.05
2023-02-19T11:55:39.045Z,1014.99
2023-02-19T11:56:39.057Z,1015.06
2023-02-19T11:57:39.067Z,1014.98
2023-02-19T11:58:39.049Z,1014.99
2023-02-19T11:59:39.050Z,1014.94
2023-02-19T12:00:39.040Z,1014.98
2023-02-19T12:01:39.042Z,1015.04
2023-02-19T12:02:39.043Z,1015.01
2023-02-19T12:03:39.036Z,1015.03
2023-02-19T12:04:39.043Z,1015.02
2023-02-19T12:05:39.034Z,1015.01